Time;durP1;ratioP1;P1;durP2;ratioP2;P2;SDS_P1;SDS_P2;PMS_P1;PMS_P2;Temp;Humidity;BMP_temperature;BMP_pressure;BME280_temperature;BME280_humidity;BME280_pressure;Samples;Min_cycle;Max_cycle;Signal;HPM_P1;HPM_P2
2023/09/25 00:01:33;;;;;;;2.10;0.30;;;13.10;99.90;;;;;;5077053;28;20114;-74
2023/09/25 00:04:00;;;;;;;2.20;0.17;;;13.00;99.90;;;;;;5094977;28;20499;-74
2023/09/25 00:06:26;;;;;;;6.22;0.15;;;13.00;99.90;;;;;;5095048;28;20083;-74
2023/09/25 00:08:51;;;;;;;1.90;0.10;;;13.00;99.90;;;;;;5076703;28;20440;-74
2023/09/25 00:11:17;;;;;;;1.45;0.30;;;13.00;99.90;;;;;;5094896;28;20063;-74
2023/09/25 00:13:42;;;;;;;2.35;0.43;;;13.00;99.90;;;;;;5095339;28;20364;-74
2023/09/25 00:16:16;;;;;;;1.73;0.30;;;13.00;99.90;;;;;;5094776;28;20058;-74
2023/09/25 00:18:42;;;;;;;0.88;0.10;;;13.00;99.90;;;;;;5076538;28;20395;-74
2023/09/25 00:21:08;;;;;;;0.80;0.10;;;13.00;99.90;;;;;;5094789;28;20021;-74
2023/09/25 00:23:33;;;;;;;0.70;0.22;;;13.00;99.90;;;;;;5076458;28;20026;-74
2023/09/25 00:26:06;;;;;;;2.63;0.10;;;12.90;99.90;;;;;;5094587;28;20103;-74
2023/09/25 00:28:32;;;;;;;0.63;0.20;;;12.90;99.90;;;;;;5094522;28;20082;-74
2023/09/25 00:30:58;;;;;;;0.98;0.20;;;12.90;99.90;;;;;;5094468;28;20024;-74
2023/09/25 00:33:23;;;;;;;2.53;0.20;;;12.90;99.90;;;;;;5094465;28;20491;-74
2023/09/25 00:35:49;;;;;;;1.45;0.10;;;12.80;99.90;;;;;;5094294;28;20028;-74
2023/09/25 00:38:15;;;;;;;1.05;0.10;;;12.80;99.90;;;;;;5076244;28;20544;-74
2023/09/25 00:40:40;;;;;;;3.22;0.20;;;12.80;99.90;;;;;;5094693;28;20020;-74
2023/09/25 00:43:06;;;;;;;2.10;0.63;;;12.80;99.90;;;;;;5094310;28;20036;-74
2023/09/25 00:45:36;;;;;;;2.28;0.70;;;12.80;99.90;;;;;;5094245;28;20028;-74
2023/09/25 00:48:02;;;;;;;1.65;0.13;;;12.80;99.90;;;;;;5076016;28;20020;-74
2023/09/25 00:50:30;;;;;;;1.85;0.22;;;12.80;99.90;;;;;;5094063;28;20028;-74
2023/09/25 00:52:58;;;;;;;1.20;0.20;;;12.80;99.90;;;;;;5094296;28;20016;-74
2023/09/25 00:55:24;;;;;;;3.25;0.98;;;12.80;99.90;;;;;;5094018;28;20411;-74
2023/09/25 00:57:51;;;;;;;3.22;0.25;;;12.70;99.90;;;;;;5094060;28;20021;-74
2023/09/25 01:00:17;;;;;;;1.08;0.30;;;12.70;99.90;;;;;;5094399;28;20107;-74
2023/09/25 01:02:43;;;;;;;1.05;0.60;;;12.70;99.90;;;;;;5075847;28;20035;-74
2023/09/25 01:05:09;;;;;;;4.78;0.20;;;12.70;99.90;;;;;;5093826;28;20024;-74
2023/09/25 01:07:36;;;;;;;0.90;0.10;;;12.60;99.90;;;;;;5075717;28;20039;-74
2023/09/25 01:10:10;;;;;;;1.75;0.35;;;12.50;99.90;;;;;;5093834;28;20050;-74
2023/09/25 01:12:37;;;;;;;1.42;0.10;;;12.60;99.90;;;;;;5094359;28;20043;-74
2023/09/25 01:15:03;;;;;;;0.75;0.10;;;12.50;99.90;;;;;;5093683;28;20012;-74
2023/09/25 01:17:30;;;;;;;0.77;0.10;;;12.50;99.90;;;;;;5075570;28;20034;-74
2023/09/25 01:19:55;;;;;;;3.40;0.10;;;12.50;99.90;;;;;;5093699;28;20016;-74
2023/09/25 01:22:21;;;;;;;1.35;0.25;;;12.50;99.90;;;;;;5075882;28;20034;-74
2023/09/25 01:24:47;;;;;;;1.65;0.00;;;12.50;99.90;;;;;;5094059;28;20024;-74
2023/09/25 01:27:12;;;;;;;1.92;0.25;;;12.40;99.90;;;;;;5093725;28;20024;-74
2023/09/25 01:29:38;;;;;;;1.88;0.13;;;12.50;99.90;;;;;;5093704;28;20020;-74
2023/09/25 01:32:04;;;;;;;3.15;0.32;;;12.60;99.90;;;;;;5093710;28;20391;-74
2023/09/25 01:34:31;;;;;;;1.10;0.10;;;12.60;99.90;;;;;;5093629;28;20028;-74
2023/09/25 01:36:56;;;;;;;0.95;0.25;;;12.50;99.90;;;;;;5093657;28;20019;-74
2023/09/25 01:39:22;;;;;;;3.53;0.00;;;12.50;99.90;;;;;;5093691;28;20032;-74
2023/09/25 01:41:47;;;;;;;0.82;0.20;;;12.50;99.90;;;;;;5093738;28;20400;-74
2023/09/25 01:44:13;;;;;;;0.65;0.10;;;12.60;99.90;;;;;;5093615;28;20020;-74
2023/09/25 01:46:40;;;;;;;2.17;0.30;;;12.60;99.90;;;;;;5094272;28;20024;-74
2023/09/25 01:49:07;;;;;;;1.20;0.08;;;12.60;99.90;;;;;;5094035;28;20057;-74
2023/09/25 01:51:32;;;;;;;0.88;0.10;;;12.50;99.90;;;;;;5093544;28;20027;-74
2023/09/25 01:53:58;;;;;;;2.13;0.68;;;12.50;99.90;;;;;;5093466;28;20028;-74
2023/09/25 01:56:23;;;;;;;1.45;0.20;;;12.50;99.90;;;;;;5075379;28;20107;-74
2023/09/25 01:58:49;;;;;;;0.88;0.10;;;12.40;99.90;;;;;;5093641;28;20058;-75
2023/09/25 02:01:14;;;;;;;2.28;0.20;;;12.50;99.90;;;;;;5093505;28;20020;-74
2023/09/25 02:03:41;;;;;;;0.82;0.13;;;12.40;99.90;;;;;;5094542;28;20125;-74
2023/09/25 02:06:07;;;;;;;1.85;0.30;;;12.40;99.90;;;;;;5097548;28;20077;-74
2023/09/25 02:08:33;;;;;;;1.27;0.10;;;12.40;99.90;;;;;;5079182;28;20013;-74
2023/09/25 02:10:59;;;;;;;3.17;0.22;;;12.40;99.90;;;;;;5079376;28;20020;-74
2023/09/25 02:13:24;;;;;;;1.25;0.10;;;12.40;99.90;;;;;;5079171;28;20099;-74
2023/09/25 02:15:51;;;;;;;1.55;0.22;;;12.40;99.90;;;;;;5097190;28;20013;-74
2023/09/25 02:18:17;;;;;;;1.23;0.10;;;12.40;99.90;;;;;;5097323;28;20099;-74
2023/09/25 02:20:42;;;;;;;3.25;0.70;;;12.30;99.90;;;;;;5079021;28;20052;-74
2023/09/25 02:23:08;;;;;;;1.52;0.43;;;12.30;99.90;;;;;;5097296;28;20094;-74
2023/09/25 02:25:33;;;;;;;3.63;0.47;;;12.30;99.90;;;;;;5097205;28;20043;-74
2023/09/25 02:27:59;;;;;;;6.25;0.55;;;12.30;99.90;;;;;;5078529;28;20039;-74
2023/09/25 02:30:25;;;;;;;3.58;0.15;;;12.20;99.90;;;;;;5097025;28;20099;-74
2023/09/25 02:32:50;;;;;;;5.57;0.17;;;12.30;99.90;;;;;;5097057;28;20027;-74
2023/09/25 02:35:16;;;;;;;1.63;0.20;;;12.20;99.90;;;;;;5096723;28;20032;-74
2023/09/25 02:37:42;;;;;;;0.85;0.25;;;12.20;99.90;;;;;;5096778;28;20479;-74
2023/09/25 02:40:09;;;;;;;0.80;0.10;;;12.20;99.90;;;;;;5096807;28;20030;-74
2023/09/25 02:42:35;;;;;;;1.88;0.50;;;12.20;99.90;;;;;;5096759;28;20429;-74
2023/09/25 02:45:01;;;;;;;2.60;0.38;;;12.10;99.90;;;;;;5096922;28;20020;-74
2023/09/25 02:47:26;;;;;;;1.00;0.20;;;12.20;99.90;;;;;;5097183;28;20498;-74
2023/09/25 02:49:52;;;;;;;1.63;0.10;;;12.20;99.90;;;;;;5097212;28;20352;-74
2023/09/25 02:52:17;;;;;;;2.10;0.77;;;12.20;99.90;;;;;;5096555;28;20024;-74
2023/09/25 02:54:43;;;;;;;1.30;0.20;;;12.10;99.90;;;;;;5096256;28;20106;-74
2023/09/25 02:57:09;;;;;;;2.55;0.20;;;12.10;99.90;;;;;;5096549;28;20502;-74
2023/09/25 02:59:34;;;;;;;1.17;0.10;;;12.00;99.90;;;;;;5096487;28;20137;-74
2023/09/25 03:02:02;;;;;;;2.30;0.28;;;12.10;99.90;;;;;;5096464;28;20027;-74
2023/09/25 03:04:27;;;;;;;2.28;0.20;;;12.00;99.90;;;;;;5078196;28;20020;-74
2023/09/25 03:06:53;;;;;;;1.77;0.65;;;12.10;99.90;;;;;;5096990;28;20470;-74
2023/09/25 03:09:18;;;;;;;1.05;0.10;;;12.00;99.90;;;;;;5096926;28;20111;-74
2023/09/25 03:11:44;;;;;;;1.27;0.32;;;12.10;99.90;;;;;;5077954;28;20020;-74
2023/09/25 03:14:09;;;;;;;1.50;0.30;;;12.00;99.90;;;;;;5077887;28;20031;-74
2023/09/25 03:16:35;;;;;;;1.70;0.20;;;12.00;99.90;;;;;;5096127;28;20016;-74
2023/09/25 03:19:01;;;;;;;0.85;0.00;;;12.00;99.90;;;;;;5096773;28;20050;-74
2023/09/25 03:21:26;;;;;;;2.95;0.40;;;12.00;99.90;;;;;;5096078;28;20543;-74
2023/09/25 03:23:52;;;;;;;2.65;0.32;;;12.00;99.90;;;;;;5096337;28;20032;-74
2023/09/25 03:26:19;;;;;;;0.75;0.17;;;12.00;99.90;;;;;;5096109;28;20491;-74
2023/09/25 03:28:46;;;;;;;1.95;0.20;;;12.00;99.90;;;;;;5095934;28;20028;-74
2023/09/25 03:31:12;;;;;;;1.58;0.17;;;11.90;99.90;;;;;;5077750;28;20027;-75
2023/09/25 03:33:39;;;;;;;3.08;0.50;;;12.00;99.90;;;;;;5096342;28;20081;-74
2023/09/25 03:36:05;;;;;;;2.72;0.20;;;12.00;99.90;;;;;;5077530;28;20031;-74
2023/09/25 03:38:31;;;;;;;1.25;0.25;;;12.00;99.90;;;;;;5095917;28;20032;-74
2023/09/25 03:41:00;;;;;;;2.80;0.38;;;11.90;99.90;;;;;;5095612;28;20491;-74
2023/09/25 03:43:26;;;;;;;2.65;0.13;;;11.90;99.90;;;;;;5095654;28;20028;-74
2023/09/25 03:45:51;;;;;;;0.57;0.08;;;12.00;99.90;;;;;;5077300;28;20529;-74
2023/09/25 03:48:17;;;;;;;1.48;0.20;;;11.90;99.90;;;;;;5096022;28;20020;-74
2023/09/25 03:50:43;;;;;;;5.95;0.50;;;11.90;99.90;;;;;;5077467;28;20027;-74
2023/09/25 03:53:08;;;;;;;3.83;0.25;;;11.90;99.90;;;;;;5095924;28;20024;-74
2023/09/25 03:55:34;;;;;;;1.48;0.25;;;11.90;99.90;;;;;;5077084;28;20388;-75
2023/09/25 03:57:59;;;;;;;1.40;0.40;;;11.90;99.90;;;;;;5095883;28;20555;-73
2023/09/25 04:00:26;;;;;;;1.15;0.10;;;11.90;99.90;;;;;;5095256;28;20360;-74
2023/09/25 04:02:53;;;;;;;0.40;0.10;;;11.90;99.90;;;;;;5077178;28;20028;-74
2023/09/25 04:05:18;;;;;;;0.98;0.20;;;11.90;99.90;;;;;;5094991;28;20084;-74
2023/09/25 04:07:44;;;;;;;2.30;0.10;;;11.90;99.90;;;;;;5095386;28;20024;-74
2023/09/25 04:10:09;;;;;;;2.90;0.15;;;11.90;99.90;;;;;;5095833;28;20024;-74
2023/09/25 04:12:35;;;;;;;2.40;0.10;;;11.90;99.90;;;;;;5095778;28;20028;-73
2023/09/25 04:15:14;;;;;;;4.88;0.63;;;11.90;99.90;;;;;;5094994;28;20012;-73
2023/09/25 04:17:43;;;;;;;2.10;0.22;;;11.90;99.90;;;;;;5095087;28;20028;-75
2023/09/25 04:20:17;;;;;;;1.95;0.45;;;11.90;99.90;;;;;;5094967;28;20089;-75
2023/09/25 04:22:47;;;;;;;0.82;0.10;;;11.90;99.90;;;;;;5094922;28;20024;-74
2023/09/25 04:25:18;;;;;;;1.55;0.35;;;11.90;99.90;;;;;;5094754;28;20024;-75
2023/09/25 04:27:45;;;;;;;2.42;0.20;;;11.80;99.90;;;;;;5094248;28;20035;-75
2023/09/25 04:30:14;;;;;;;1.95;0.65;;;11.80;99.90;;;;;;5094708;28;20459;-75
2023/09/25 04:32:43;;;;;;;1.75;0.55;;;11.80;99.90;;;;;;5095215;28;20020;-75
2023/09/25 04:35:10;;;;;;;2.95;0.30;;;11.80;99.90;;;;;;5094936;28;20027;-75
2023/09/25 04:37:37;;;;;;;4.43;0.50;;;11.80;99.90;;;;;;5094507;28;20024;-74
2023/09/25 04:40:09;;;;;;;1.27;0.15;;;11.80;99.90;;;;;;5095029;28;20016;-74
2023/09/25 04:42:35;;;;;;;2.08;0.20;;;11.80;99.90;;;;;;5094528;28;20035;-74
2023/09/25 04:45:01;;;;;;;1.23;0.10;;;11.80;99.90;;;;;;5094402;28;20024;-75
2023/09/25 04:47:26;;;;;;;1.10;0.20;;;12.00;99.90;;;;;;5094538;28;20039;-74
2023/09/25 04:49:52;;;;;;;0.55;0.10;;;11.80;99.90;;;;;;5094404;28;20028;-75
2023/09/25 04:52:19;;;;;;;1.20;0.43;;;11.80;99.90;;;;;;5094309;28;20097;-74
2023/09/25 04:54:44;;;;;;;0.75;0.38;;;11.80;99.90;;;;;;5094180;28;20580;-75
2023/09/25 04:57:10;;;;;;;3.85;0.20;;;11.80;99.90;;;;;;5094986;28;20016;-75
2023/09/25 04:59:36;;;;;;;0.98;0.10;;;11.80;99.90;;;;;;5094826;28;20069;-75
2023/09/25 05:02:01;;;;;;;1.95;0.20;;;11.90;99.90;;;;;;5094359;28;20024;-75
2023/09/25 05:04:27;;;;;;;1.02;0.22;;;11.90;99.90;;;;;;5094037;28;20027;-75
2023/09/25 05:06:52;;;;;;;0.57;0.20;;;11.90;99.90;;;;;;5094226;28;20035;-75
2023/09/25 05:09:18;;;;;;;1.33;0.30;;;11.90;99.90;;;;;;5094581;28;20046;-75
2023/09/25 05:11:43;;;;;;;0.75;0.10;;;11.80;99.90;;;;;;5094543;28;20024;-75
2023/09/25 05:14:09;;;;;;;1.17;0.30;;;11.80;99.90;;;;;;5093991;28;20070;-75
2023/09/25 05:16:34;;;;;;;5.68;0.35;;;11.80;99.90;;;;;;5093954;28;20023;-75
2023/09/25 05:19:00;;;;;;;1.95;0.20;;;11.80;99.90;;;;;;5094556;28;20429;-75
2023/09/25 05:21:26;;;;;;;2.15;0.28;;;11.80;99.90;;;;;;5093958;28;20092;-75
2023/09/25 05:23:52;;;;;;;1.15;0.20;;;11.80;99.90;;;;;;5094646;28;20032;-76
2023/09/25 05:26:17;;;;;;;0.57;0.20;;;11.80;99.90;;;;;;5093748;28;20073;-75
2023/09/25 05:28:43;;;;;;;2.95;0.20;;;11.90;99.90;;;;;;5093613;28;20028;-75
2023/09/25 05:31:08;;;;;;;1.10;0.30;;;11.90;99.90;;;;;;5093773;28;20032;-76
2023/09/25 05:33:34;;;;;;;1.65;0.10;;;11.90;99.90;;;;;;5075622;28;20506;-76
2023/09/25 05:35:59;;;;;;;1.27;0.30;;;11.90;99.90;;;;;;5093800;28;20387;-75
2023/09/25 05:38:25;;;;;;;4.18;0.10;;;11.90;99.90;;;;;;5092896;28;20025;-76
2023/09/25 05:40:51;;;;;;;2.80;0.20;;;11.90;99.90;;;;;;5093656;28;20027;-75
2023/09/25 05:43:17;;;;;;;4.93;0.25;;;11.90;99.90;;;;;;5093671;28;20016;-75
2023/09/25 05:45:42;;;;;;;1.75;0.28;;;11.90;99.90;;;;;;5093524;28;20479;-75
2023/09/25 05:48:11;;;;;;;1.60;0.17;;;11.90;99.90;;;;;;5094015;28;20050;-76
2023/09/25 05:50:37;;;;;;;2.30;0.95;;;11.90;99.90;;;;;;5093640;28;20016;-76
2023/09/25 05:53:03;;;;;;;2.42;0.32;;;11.90;99.90;;;;;;5093529;28;20112;-76
2023/09/25 05:55:29;;;;;;;3.50;0.47;;;11.90;99.90;;;;;;5093451;28;20118;-75
2023/09/25 05:57:55;;;;;;;2.67;0.32;;;11.90;99.90;;;;;;5094085;28;20043;-75
2023/09/25 06:00:22;;;;;;;0.30;0.10;;;11.90;99.90;;;;;;5093396;28;20450;-76
2023/09/25 06:02:48;;;;;;;1.30;0.10;;;11.90;99.90;;;;;;5075415;28;20024;-75
2023/09/25 06:05:13;;;;;;;1.48;0.10;;;12.00;99.90;;;;;;5093408;28;20119;-75
2023/09/25 06:07:39;;;;;;;2.13;0.20;;;12.00;99.90;;;;;;5093116;28;20035;-75
2023/09/25 06:10:07;;;;;;;1.20;0.32;;;12.00;99.90;;;;;;5093351;28;20085;-75
2023/09/25 06:12:33;;;;;;;1.33;0.30;;;12.00;99.90;;;;;;5093316;28;20507;-75
2023/09/25 06:15:05;;;;;;;5.30;0.30;;;12.10;99.90;;;;;;5093233;28;20044;-76
2023/09/25 06:17:31;;;;;;;5.63;0.32;;;12.10;99.90;;;;;;5074941;28;20021;-75
2023/09/25 06:19:57;;;;;;;2.67;0.20;;;12.10;99.90;;;;;;5093321;28;20387;-75
2023/09/25 06:22:22;;;;;;;1.73;0.22;;;12.10;99.90;;;;;;5075067;28;20017;-75
2023/09/25 06:24:49;;;;;;;4.53;0.15;;;12.20;99.90;;;;;;5093277;28;20031;-75
2023/09/25 06:27:14;;;;;;;1.13;0.10;;;12.30;99.90;;;;;;5092969;28;20028;-75
2023/09/25 06:29:42;;;;;;;1.88;0.38;;;12.40;99.90;;;;;;5074777;28;20028;-75
2023/09/25 06:32:09;;;;;;;1.10;0.30;;;12.40;99.90;;;;;;5093117;28;20032;-76
2023/09/25 06:34:35;;;;;;;0.98;0.20;;;12.50;99.90;;;;;;5092818;28;20024;-76
2023/09/25 06:37:01;;;;;;;1.35;0.10;;;;;;;;;;5092941;28;20020;-75
2023/09/25 06:39:27;;;;;;;5.57;0.20;;;12.60;99.90;;;;;;5092818;28;20024;-76
2023/09/25 06:41:52;;;;;;;2.47;0.35;;;12.70;99.90;;;;;;5074862;28;20020;-76
2023/09/25 06:44:19;;;;;;;5.10;0.20;;;12.80;99.90;;;;;;5092830;28;20491;-75
2023/09/25 06:46:45;;;;;;;2.72;0.20;;;12.80;99.90;;;;;;5092881;28;20032;-76
2023/09/25 06:49:11;;;;;;;3.10;0.28;;;12.90;99.90;;;;;;5072985;28;20024;-76
2023/09/25 06:51:36;;;;;;;0.73;0.30;;;13.00;99.90;;;;;;5077982;28;20116;-76
2023/09/25 06:54:02;;;;;;;0.80;0.10;;;13.10;99.90;;;;;;5096127;28;20028;-76
2023/09/25 06:56:28;;;;;;;0.77;0.20;;;13.10;99.90;;;;;;5096082;28;20390;-76
2023/09/25 06:58:53;;;;;;;0.90;0.13;;;13.10;99.90;;;;;;5096227;28;20387;-76
2023/09/25 07:01:20;;;;;;;0.82;0.10;;;13.20;99.90;;;;;;5077947;28;20036;-75
2023/09/25 07:03:45;;;;;;;1.02;0.30;;;13.20;99.90;;;;;;5096173;28;20028;-75
2023/09/25 07:06:11;;;;;;;4.10;0.10;;;13.30;99.90;;;;;;5095871;28;20039;-75
2023/09/25 07:08:38;;;;;;;6.60;0.20;;;13.40;99.90;;;;;;5077483;28;20058;-75
2023/09/25 07:11:04;;;;;;;0.98;0.17;;;13.50;99.90;;;;;;5095909;28;20043;-75
2023/09/25 07:13:30;;;;;;;1.65;0.10;;;13.60;99.90;;;;;;5096068;28;20046;-76
2023/09/25 07:16:03;;;;;;;0.93;0.10;;;13.60;99.90;;;;;;5095883;28;20024;-76
2023/09/25 07:18:29;;;;;;;4.32;0.20;;;13.70;99.90;;;;;;5095809;28;20391;-76
2023/09/25 07:20:55;;;;;;;2.90;0.15;;;;;;;;;;5095902;28;20025;-76
2023/09/25 07:23:21;;;;;;;2.30;0.35;;;13.80;99.90;;;;;;5077612;28;20028;-76
2023/09/25 07:25:47;;;;;;;1.17;0.20;;;14.00;99.90;;;;;;5095819;28;20027;-76
2023/09/25 07:28:13;;;;;;;4.35;0.55;;;14.00;99.90;;;;;;5096052;28;20028;-76
2023/09/25 07:30:44;;;;;;;0.68;0.00;;;14.10;99.90;;;;;;5095691;28;20433;-75
2023/09/25 07:33:11;;;;;;;3.05;0.20;;;14.30;99.90;;;;;;5095654;28;20035;-75
2023/09/25 07:35:37;;;;;;;0.65;0.10;;;14.30;99.90;;;;;;5095463;28;20495;-75
2023/09/25 07:38:03;;;;;;;1.80;0.22;;;14.40;99.90;;;;;;5077293;28;20016;-75
2023/09/25 07:40:29;;;;;;;1.52;0.22;;;14.50;99.90;;;;;;5095470;28;20024;-76
2023/09/25 07:42:55;;;;;;;2.20;0.13;;;14.60;99.90;;;;;;5095580;28;20032;-75
2023/09/25 07:45:25;;;;;;;6.32;0.30;;;14.70;99.90;;;;;;5095492;28;20024;-75
2023/09/25 07:47:52;;;;;;;3.10;0.13;;;14.80;99.90;;;;;;5095311;28;20056;-75
2023/09/25 07:50:19;;;;;;;2.58;0.17;;;14.90;99.90;;;;;;5095294;28;20352;-75
2023/09/25 07:52:45;;;;;;;1.98;0.20;;;15.00;99.90;;;;;;5095404;28;20525;-75
2023/09/25 07:55:11;;;;;;;0.47;0.17;;;15.10;99.90;;;;;;5077070;28;20114;-75
2023/09/25 07:57:39;;;;;;;0.52;0.03;;;15.20;99.90;;;;;;5094787;28;20028;-75
2023/09/25 08:00:23;;;;;;;3.40;0.52;;;15.30;99.90;;;;;;5095078;28;20464;-75
2023/09/25 08:02:52;;;;;;;0.95;0.10;;;15.40;99.90;;;;;;5076043;28;20055;-76
2023/09/25 08:05:19;;;;;;;1.65;0.20;;;15.50;99.90;;;;;;5076402;28;20020;-75
2023/09/25 08:07:49;;;;;;;1.30;0.05;;;15.60;99.90;;;;;;5094919;28;20028;-75
2023/09/25 08:10:17;;;;;;;1.50;0.47;;;15.70;99.90;;;;;;5094939;28;20020;-75
2023/09/25 08:12:43;;;;;;;2.13;0.03;;;15.80;99.90;;;;;;5094767;28;20423;-75
2023/09/25 08:15:10;;;;;;;2.20;0.30;;;15.80;99.90;;;;;;5094658;28;20020;-75
2023/09/25 08:17:36;;;;;;;2.85;0.03;;;15.80;99.90;;;;;;5094829;28;20035;-75
2023/09/25 08:20:14;;;;;;;1.60;0.00;;;15.80;99.90;;;;;;5094761;28;20046;-75
2023/09/25 08:22:41;;;;;;;0.52;0.00;;;15.80;99.90;;;;;;5094731;28;20101;-75
2023/09/25 08:25:08;;;;;;;2.47;0.00;;;15.80;99.90;;;;;;5094347;28;20024;-75
2023/09/25 08:27:34;;;;;;;1.75;0.10;;;15.90;99.90;;;;;;5094466;28;20016;-75
2023/09/25 08:29:59;;;;;;;2.00;0.65;;;15.90;99.90;;;;;;5094655;28;20541;-75
2023/09/25 08:32:25;;;;;;;1.75;0.20;;;15.80;99.90;;;;;;5094445;28;20478;-76
2023/09/25 08:34:50;;;;;;;4.30;0.05;;;15.90;99.90;;;;;;5094502;28;20065;-75
2023/09/25 08:37:16;;;;;;;0.60;0.17;;;16.00;99.90;;;;;;5094639;28;20020;-75
2023/09/25 08:39:41;;;;;;;3.20;0.20;;;16.10;99.90;;;;;;5076353;28;20035;-75
2023/09/25 08:42:07;;;;;;;0.93;0.15;;;16.20;99.90;;;;;;5094494;28;20028;-75
2023/09/25 08:44:33;;;;;;;1.33;0.00;;;16.30;99.90;;;;;;5094190;28;20107;-75
2023/09/25 08:46:58;;;;;;;1.08;0.13;;;16.60;99.90;;;;;;5094206;28;20028;-75
2023/09/25 08:49:24;;;;;;;1.35;0.10;;;16.80;99.90;;;;;;5094299;28;20390;-75
2023/09/25 08:51:52;;;;;;;1.55;0.00;;;16.90;99.90;;;;;;5094253;28;20036;-75
2023/09/25 08:54:17;;;;;;;1.00;0.03;;;16.90;99.90;;;;;;5094101;28;20061;-75
2023/09/25 08:56:45;;;;;;;1.95;0.35;;;17.00;99.90;;;;;;5093775;28;20111;-75
2023/09/25 08:59:11;;;;;;;1.88;0.35;;;17.10;99.90;;;;;;5075729;28;20020;-75
2023/09/25 09:01:37;;;;;;;2.13;0.03;;;17.20;99.90;;;;;;5075835;28;20118;-75
2023/09/25 09:04:03;;;;;;;1.17;0.43;;;17.20;99.90;;;;;;5093882;28;20493;-76
2023/09/25 09:06:29;;;;;;;0.80;0.10;;;17.30;99.90;;;;;;5093779;28;20028;-75
2023/09/25 09:08:57;;;;;;;1.58;0.10;;;17.30;99.90;;;;;;5075451;28;20108;-75
2023/09/25 09:11:22;;;;;;;1.13;0.00;;;17.30;99.90;;;;;;5093917;28;20103;-75
2023/09/25 09:13:48;;;;;;;1.85;0.00;;;17.30;99.90;;;;;;5093812;28;20043;-75
2023/09/25 09:16:16;;;;;;;0.47;0.00;;;17.30;99.90;;;;;;5075425;28;20012;-75
2023/09/25 09:18:42;;;;;;;1.67;0.30;;;17.40;99.90;;;;;;5093633;28;20487;-75
2023/09/25 09:21:25;;;;;;;0.47;0.08;;;17.50;99.90;;;;;;5075583;28;20070;-75
2023/09/25 09:23:51;;;;;;;0.20;0.00;;;17.50;99.90;;;;;;5093817;28;20123;-75
2023/09/25 09:26:17;;;;;;;0.40;0.10;;;17.50;99.90;;;;;;5093513;28;20024;-75
2023/09/25 09:28:43;;;;;;;1.65;0.10;;;17.50;99.90;;;;;;5093205;28;20565;-75
2023/09/25 09:31:10;;;;;;;2.25;0.28;;;17.60;99.90;;;;;;5093610;28;20514;-75
2023/09/25 09:33:43;;;;;;;0.10;0.00;;;17.70;99.90;;;;;;5075502;28;20020;-75
2023/09/25 09:36:13;;;;;;;0.40;0.00;;;17.70;99.90;;;;;;5075423;28;20020;-75
2023/09/25 09:38:40;;;;;;;2.33;0.10;;;17.70;99.90;;;;;;5093345;28;20467;-75
2023/09/25 09:41:06;;;;;;;2.20;0.17;;;17.80;99.90;;;;;;5093468;28;20419;-75
2023/09/25 09:43:32;;;;;;;0.40;0.00;;;17.90;99.90;;;;;;5093414;28;20028;-75
2023/09/25 09:45:59;;;;;;;0.40;0.05;;;18.10;99.90;;;;;;5093319;28;20031;-75
2023/09/25 09:48:31;;;;;;;0.80;0.10;;;18.20;99.90;;;;;;5093050;28;20112;-76
2023/09/25 09:51:00;;;;;;;1.15;0.50;;;18.30;99.90;;;;;;5093277;28;20020;-75
2023/09/25 09:53:29;;;;;;;0.35;0.00;;;18.30;99.90;;;;;;5093174;28;20107;-75
2023/09/25 09:55:56;;;;;;;2.83;0.25;;;18.30;99.90;;;;;;5093032;28;20134;-75
2023/09/25 09:58:27;;;;;;;0.77;0.10;;;18.30;99.90;;;;;;5075089;28;20039;-75
2023/09/25 10:00:55;;;;;;;10.60;0.38;;;18.20;99.90;;;;;;5075233;28;20043;-75
2023/09/25 10:03:21;;;;;;;1.20;0.08;;;18.50;99.90;;;;;;5075086;28;20027;-75
2023/09/25 10:05:51;;;;;;;4.80;0.20;;;18.60;99.90;;;;;;5093119;28;20107;-75
2023/09/25 10:08:17;;;;;;;0.57;0.00;;;18.60;99.90;;;;;;5092968;28;20111;-75
2023/09/25 10:10:48;;;;;;;0.82;0.15;;;18.70;99.90;;;;;;5074966;28;20024;-75
2023/09/25 10:13:21;;;;;;;2.42;0.20;;;18.80;99.90;;;;;;5093331;28;20024;-75
2023/09/25 10:16:00;;;;;;;0.98;0.10;;;18.90;99.90;;;;;;5093397;28;20016;-75
2023/09/25 10:18:29;;;;;;;1.58;0.20;;;19.00;99.90;;;;;;5093098;28;20399;-75
2023/09/25 10:21:10;;;;;;;2.47;0.20;;;19.10;99.90;;;;;;5092922;28;20093;-75
2023/09/25 10:23:39;;;;;;;3.05;0.20;;;19.10;99.90;;;;;;5093087;28;20052;-75
2023/09/25 10:26:20;;;;;;;1.15;0.22;;;19.10;99.90;;;;;;5096483;28;20021;-75
2023/09/25 10:29:18;;;;;;;0.50;0.13;;;19.30;99.90;;;;;;5097086;28;20038;-75
2023/09/25 10:31:48;;;;;;;2.35;0.17;;;19.40;99.90;;;;;;5078716;28;20390;-75
2023/09/25 10:34:14;;;;;;;1.85;0.38;;;19.50;99.90;;;;;;5096726;28;20020;-75
2023/09/25 10:36:44;;;;;;;1.70;0.20;;;19.60;99.90;;;;;;5096922;28;20020;-75
2023/09/25 10:39:14;;;;;;;1.20;0.15;;;19.70;99.90;;;;;;5096494;28;20028;-75
2023/09/25 10:41:42;;;;;;;2.58;0.28;;;19.70;99.90;;;;;;5096730;28;20016;-75
2023/09/25 10:44:09;;;;;;;0.32;0.00;;;19.80;99.90;;;;;;5078216;28;20032;-75
2023/09/25 10:46:35;;;;;;;4.67;0.20;;;19.90;99.90;;;;;;5096599;28;20387;-75
2023/09/25 10:49:01;;;;;;;5.97;0.20;;;20.00;99.90;;;;;;5096457;28;20024;-75
2023/09/25 10:51:26;;;;;;;1.10;0.13;;;20.10;99.90;;;;;;5096757;28;20468;-75
2023/09/25 10:53:53;;;;;;;0.88;0.10;;;20.20;99.90;;;;;;5096566;28;20047;-75
2023/09/25 10:56:19;;;;;;;2.05;0.30;;;20.30;99.90;;;;;;5096315;28;20034;-75
2023/09/25 10:58:50;;;;;;;0.32;0.10;;;20.30;99.90;;;;;;5096248;28;20538;-75
2023/09/25 11:01:23;;;;;;;0.70;0.10;;;20.30;99.90;;;;;;5078283;28;20027;-75
2023/09/25 11:03:48;;;;;;;0.32;0.03;;;20.60;99.90;;;;;;5096414;28;20099;-75
2023/09/25 11:06:14;;;;;;;1.98;0.10;;;20.70;99.90;;;;;;5096438;28;20052;-75
2023/09/25 11:08:40;;;;;;;1.10;0.10;;;20.90;99.90;;;;;;5095906;28;20027;-75
2023/09/25 11:11:06;;;;;;;1.90;0.20;;;21.00;99.90;;;;;;5096225;28;20020;-75
2023/09/25 11:13:31;;;;;;;0.77;0.20;;;21.30;99.90;;;;;;5096067;28;20020;-75
2023/09/25 11:16:00;;;;;;;0.30;0.00;;;21.30;99.90;;;;;;5096179;28;20031;-75
2023/09/25 11:18:26;;;;;;;3.75;0.00;;;21.30;99.90;;;;;;5095947;28;20433;-75
2023/09/25 11:20:51;;;;;;;2.95;0.28;;;21.50;99.90;;;;;;5078002;28;20024;-75
2023/09/25 11:23:17;;;;;;;1.00;0.10;;;21.50;99.90;;;;;;5096150;28;20391;-75
2023/09/25 11:26:02;;;;;;;1.20;0.30;;;21.40;99.90;;;;;;5077940;28;20016;-75
2023/09/25 11:28:30;;;;;;;1.75;0.03;;;21.30;99.90;;;;;;5095758;28;20078;-75
2023/09/25 11:30:56;;;;;;;1.85;0.22;;;21.30;99.90;;;;;;5077767;28;20019;-75
2023/09/25 11:33:23;;;;;;;1.63;0.10;;;21.40;99.90;;;;;;5096161;28;20036;-75
2023/09/25 11:35:52;;;;;;;1.73;0.13;;;21.60;99.90;;;;;;5095312;28;20024;-75
2023/09/25 11:38:21;;;;;;;1.05;0.17;;;21.70;99.90;;;;;;5095966;28;20479;-75
2023/09/25 11:40:50;;;;;;;0.45;0.10;;;21.90;99.90;;;;;;5077299;28;20111;-75
2023/09/25 11:43:15;;;;;;;1.30;0.43;;;22.10;99.90;;;;;;5096013;28;20020;-75
2023/09/25 11:45:41;;;;;;;1.92;0.20;;;22.30;99.90;;;;;;5077558;28;20036;-75
2023/09/25 11:48:09;;;;;;;1.15;0.13;;;22.30;99.90;;;;;;5095452;28;20024;-75
2023/09/25 11:50:35;;;;;;;3.08;0.20;;;22.60;99.90;;;;;;5095363;28;20530;-76
2023/09/25 11:53:00;;;;;;;1.52;0.03;;;22.70;99.90;;;;;;5095715;28;20020;-75
2023/09/25 11:55:27;;;;;;;4.18;0.00;;;22.60;99.90;;;;;;5095294;28;20035;-75
2023/09/25 11:57:52;;;;;;;1.50;0.00;;;22.50;99.90;;;;;;5077070;28;20032;-75
2023/09/25 12:00:18;;;;;;;0.82;0.00;;;22.50;99.90;;;;;;5095344;28;20024;-75
2023/09/25 12:02:48;;;;;;;1.73;0.50;;;22.50;99.90;;;;;;5095039;28;20027;-75
2023/09/25 12:05:17;;;;;;;1.70;0.17;;;22.60;99.90;;;;;;5095060;28;20505;-75
2023/09/25 12:07:44;;;;;;;2.20;0.00;;;22.60;99.90;;;;;;5094903;28;20027;-75
2023/09/25 12:10:16;;;;;;;2.13;0.43;;;22.60;99.90;;;;;;5094981;28;20013;-75
2023/09/25 12:12:44;;;;;;;1.17;0.10;;;22.80;99.90;;;;;;5094845;28;20069;-75
2023/09/25 12:15:13;;;;;;;1.73;0.08;;;22.90;99.90;;;;;;5094947;28;20020;-75
2023/09/25 12:17:40;;;;;;;1.05;0.10;;;22.80;99.90;;;;;;5095316;28;20016;-75
2023/09/25 12:20:12;;;;;;;1.67;0.05;;;22.80;99.90;;;;;;5095019;28;20478;-75
2023/09/25 12:22:40;;;;;;;2.10;0.45;;;22.90;99.90;;;;;;5094801;28;20027;-75
2023/09/25 12:25:09;;;;;;;0.52;0.17;;;22.90;99.90;;;;;;5094717;28;20129;-75
2023/09/25 12:27:35;;;;;;;0.98;0.25;;;22.90;99.90;;;;;;5076617;28;20097;-75
2023/09/25 12:30:03;;;;;;;1.52;0.10;;;22.90;99.90;;;;;;5094730;28;20087;-75
2023/09/25 12:32:29;;;;;;;3.63;0.00;;;22.90;99.90;;;;;;5094618;28;20016;-75
2023/09/25 12:34:54;;;;;;;0.20;0.00;;;22.80;99.90;;;;;;5094968;28;20099;-75
2023/09/25 12:37:20;;;;;;;1.10;0.25;;;22.80;99.90;;;;;;5094968;28;20027;-75
2023/09/25 12:39:45;;;;;;;1.63;0.10;;;22.80;99.90;;;;;;5076408;28;20479;-75
2023/09/25 12:42:11;;;;;;;0.90;0.00;;;22.70;99.90;;;;;;5094393;28;20062;-75
2023/09/25 12:44:36;;;;;;;0.50;0.00;;;22.70;99.90;;;;;;5094328;28;20031;-75
2023/09/25 12:47:02;;;;;;;1.05;0.17;;;22.50;99.90;;;;;;5094143;28;20039;-75